sensor_id;sensor_type;location;lat;lon;timestamp;P1;P2;P0
66336;PMS1003;53139;45.576;5.304;2023-08-17T00:01:58;4.00;3.25;2.25
66336;PMS1003;53139;45.576;5.304;2023-08-17T00:04:59;4.25;4.25;3.50
66336;PMS1003;53139;45.576;5.304;2023-08-17T00:08:00;3.00;2.00;2.00
66336;PMS1003;53139;45.576;5.304;2023-08-17T00:11:02;3.25;3.25;3.00
66336;PMS1003;53139;45.576;5.304;2023-08-17T00:14:03;5.75;4.00;3.25
66336;PMS1003;53139;45.576;5.304;2023-08-17T00:17:05;4.75;3.50;3.00
66336;PMS1003;53139;45.576;5.304;2023-08-17T00:20:06;3.00;3.00;2.00
66336;PMS1003;53139;45.576;5.304;2023-08-17T00:23:28;3.50;3.50;2.75
66336;PMS1003;53139;45.576;5.304;2023-08-17T00:26:48;3.75;2.00;2.00
66336;PMS1003;53139;45.576;5.304;2023-08-17T00:29:59;9.00;4.00;3.00
66336;PMS1003;53139;45.576;5.304;2023-08-17T00:33:00;7.25;7.00;5.00
66336;PMS1003;53139;45.576;5.304;2023-08-17T00:36:16;4.00;4.00;3.00
66336;PMS1003;53139;45.576;5.304;2023-08-17T00:39:34;5.00;5.00;4.00
66336;PMS1003;53139;45.576;5.304;2023-08-17T00:42:54;5.50;5.00;3.75
66336;PMS1003;53139;45.576;5.304;2023-08-17T00:45:54;4.50;3.25;2.75
66336;PMS1003;53139;45.576;5.304;2023-08-17T00:48:55;4.00;3.25;2.75
66336;PMS1003;53139;45.576;5.304;2023-08-17T00:51:56;4.75;4.50;3.50
66336;PMS1003;53139;45.576;5.304;2023-08-17T00:54:57;5.00;4.00;4.00
66336;PMS1003;53139;45.576;5.304;2023-08-17T00:57:58;6.00;4.50;3.00
66336;PMS1003;53139;45.576;5.304;2023-08-17T01:00:59;3.00;3.00;2.25
66336;PMS1003;53139;45.576;5.304;2023-08-17T01:04:00;9.50;6.00;5.00
66336;PMS1003;53139;45.576;5.304;2023-08-17T01:07:01;5.50;5.00;3.75
66336;PMS1003;53139;45.576;5.304;2023-08-17T01:10:01;5.25;5.25;4.00
66336;PMS1003;53139;45.576;5.304;2023-08-17T01:13:09;4.00;4.00;3.50
66336;PMS1003;53139;45.576;5.304;2023-08-17T01:16:16;5.50;4.00;2.50
66336;PMS1003;53139;45.576;5.304;2023-08-17T01:19:26;6.00;5.00;4.00
66336;PMS1003;53139;45.576;5.304;2023-08-17T01:22:27;3.00;3.00;2.00
66336;PMS1003;53139;45.576;5.304;2023-08-17T01:25:30;4.00;4.00;3.25
66336;PMS1003;53139;45.576;5.304;2023-08-17T01:28:30;4.50;4.50;4.00
66336;PMS1003;53139;45.576;5.304;2023-08-17T01:31:40;4.25;4.25;4.00
66336;PMS1003;53139;45.576;5.304;2023-08-17T01:34:52;4.50;4.50;3.00
66336;PMS1003;53139;45.576;5.304;2023-08-17T01:38:00;4.00;4.00;3.00
66336;PMS1003;53139;45.576;5.304;2023-08-17T01:41:05;4.25;4.25;3.25
66336;PMS1003;53139;45.576;5.304;2023-08-17T01:44:07;6.00;4.00;3.00
66336;PMS1003;53139;45.576;5.304;2023-08-17T01:47:07;5.00;3.75;3.00
66336;PMS1003;53139;45.576;5.304;2023-08-17T01:50:09;6.00;4.00;3.00
66336;PMS1003;53139;45.576;5.304;2023-08-17T01:53:09;4.75;4.75;4.00
66336;PMS1003;53139;45.576;5.304;2023-08-17T01:56:11;4.00;4.00;4.00
66336;PMS1003;53139;45.576;5.304;2023-08-17T01:59:12;5.50;4.25;3.00
66336;PMS1003;53139;45.576;5.304;2023-08-17T02:02:13;4.00;4.00;3.00
66336;PMS1003;53139;45.576;5.304;2023-08-17T02:05:14;6.25;5.00;4.00
66336;PMS1003;53139;45.576;5.304;2023-08-17T02:08:15;7.00;5.00;4.00
66336;PMS1003;53139;45.576;5.304;2023-08-17T02:11:15;6.25;5.00;4.00
66336;PMS1003;53139;45.576;5.304;2023-08-17T02:14:15;5.00;5.00;4.00
66336;PMS1003;53139;45.576;5.304;2023-08-17T02:17:16;6.50;6.00;4.75
66336;PMS1003;53139;45.576;5.304;2023-08-17T02:20:19;4.25;3.25;3.00
66336;PMS1003;53139;45.576;5.304;2023-08-17T02:23:19;7.75;5.00;3.75
66336;PMS1003;53139;45.576;5.304;2023-08-17T02:26:20;7.50;5.00;4.00
66336;PMS1003;53139;45.576;5.304;2023-08-17T02:29:20;4.00;3.00;3.00
66336;PMS1003;53139;45.576;5.304;2023-08-17T02:32:21;6.00;6.00;4.50
66336;PMS1003;53139;45.576;5.304;2023-08-17T02:35:21;5.50;4.75;4.25
66336;PMS1003;53139;45.576;5.304;2023-08-17T02:38:22;5.25;4.00;3.00
66336;PMS1003;53139;45.576;5.304;2023-08-17T02:41:22;7.00;6.00;5.00
66336;PMS1003;53139;45.576;5.304;2023-08-17T02:44:23;5.75;4.50;3.50
66336;PMS1003;53139;45.576;5.304;2023-08-17T02:47:23;6.75;5.00;4.00
66336;PMS1003;53139;45.576;5.304;2023-08-17T02:50:24;6.00;5.75;4.25
66336;PMS1003;53139;45.576;5.304;2023-08-17T02:53:24;5.50;4.50;4.00
66336;PMS1003;53139;45.576;5.304;2023-08-17T02:56:24;6.00;6.00;5.00
66336;PMS1003;53139;45.576;5.304;2023-08-17T02:59:25;4.00;4.00;3.50
66336;PMS1003;53139;45.576;5.304;2023-08-17T03:02:25;4.50;4.50;4.00
66336;PMS1003;53139;45.576;5.304;2023-08-17T03:05:26;7.75;6.00;5.00
66336;PMS1003;53139;45.576;5.304;2023-08-17T03:08:26;6.75;6.25;5.25
66336;PMS1003;53139;45.576;5.304;2023-08-17T03:11:27;6.50;6.00;4.75
66336;PMS1003;53139;45.576;5.304;2023-08-17T03:14:27;7.25;4.00;4.00
66336;PMS1003;53139;45.576;5.304;2023-08-17T03:17:28;7.75;5.25;4.25
66336;PMS1003;53139;45.576;5.304;2023-08-17T03:20:28;5.25;4.75;3.75
66336;PMS1003;53139;45.576;5.304;2023-08-17T03:23:29;7.00;6.75;5.50
66336;PMS1003;53139;45.576;5.304;2023-08-17T03:26:29;6.25;5.75;5.00
66336;PMS1003;53139;45.576;5.304;2023-08-17T03:29:29;7.00;5.75;5.00
66336;PMS1003;53139;45.576;5.304;2023-08-17T03:32:30;5.25;5.25;4.25
66336;PMS1003;53139;45.576;5.304;2023-08-17T03:35:30;6.00;5.00;5.00
66336;PMS1003;53139;45.576;5.304;2023-08-17T03:38:31;7.25;6.00;5.00
66336;PMS1003;53139;45.576;5.304;2023-08-17T03:41:31;6.75;6.25;5.00
66336;PMS1003;53139;45.576;5.304;2023-08-17T03:44:31;8.00;6.50;6.00
66336;PMS1003;53139;45.576;5.304;2023-08-17T03:47:32;6.00;5.00;3.25
66336;PMS1003;53139;45.576;5.304;2023-08-17T03:50:32;9.50;9.50;8.25
66336;PMS1003;53139;45.576;5.304;2023-08-17T03:53:33;9.00;8.00;6.25
66336;PMS1003;53139;45.576;5.304;2023-08-17T03:56:33;7.00;6.50;5.50
66336;PMS1003;53139;45.576;5.304;2023-08-17T03:59:34;8.25;7.00;5.25
66336;PMS1003;53139;45.576;5.304;2023-08-17T04:02:34;11.00;8.00;6.25
66336;PMS1003;53139;45.576;5.304;2023-08-17T04:05:34;5.00;5.00;4.25
66336;PMS1003;53139;45.576;5.304;2023-08-17T04:08:35;10.50;7.00;6.00
66336;PMS1003;53139;45.576;5.304;2023-08-17T04:11:39;5.00;5.00;4.50
66336;PMS1003;53139;45.576;5.304;2023-08-17T04:14:39;6.75;5.00;4.00
66336;PMS1003;53139;45.576;5.304;2023-08-17T04:17:39;7.00;6.75;6.00
66336;PMS1003;53139;45.576;5.304;2023-08-17T04:20:40;5.50;5.25;4.25
66336;PMS1003;53139;45.576;5.304;2023-08-17T04:23:40;5.25;5.25;5.00
66336;PMS1003;53139;45.576;5.304;2023-08-17T04:26:41;7.50;6.50;5.00
66336;PMS1003;53139;45.576;5.304;2023-08-17T04:29:41;7.50;7.00;5.00
66336;PMS1003;53139;45.576;5.304;2023-08-17T04:32:41;8.25;6.00;5.00
66336;PMS1003;53139;45.576;5.304;2023-08-17T04:35:42;6.25;6.25;5.50
66336;PMS1003;53139;45.576;5.304;2023-08-17T04:38:46;9.75;6.25;5.00
66336;PMS1003;53139;45.576;5.304;2023-08-17T04:41:47;7.00;7.00;5.00
66336;PMS1003;53139;45.576;5.304;2023-08-17T04:44:48;6.25;6.00;4.25
66336;PMS1003;53139;45.576;5.304;2023-08-17T04:47:48;7.25;6.00;5.00
66336;PMS1003;53139;45.576;5.304;2023-08-17T04:50:49;6.75;5.50;4.00
66336;PMS1003;53139;45.576;5.304;2023-08-17T04:53:51;9.00;6.00;5.00
66336;PMS1003;53139;45.576;5.304;2023-08-17T04:56:53;6.50;6.00;5.00
66336;PMS1003;53139;45.576;5.304;2023-08-17T04:59:53;8.75;7.75;5.50
66336;PMS1003;53139;45.576;5.304;2023-08-17T05:02:54;7.00;7.00;5.00
66336;PMS1003;53139;45.576;5.304;2023-08-17T05:05:55;8.25;6.00;5.00
66336;PMS1003;53139;45.576;5.304;2023-08-17T05:08:55;6.00;6.00;5.00
66336;PMS1003;53139;45.576;5.304;2023-08-17T05:11:56;5.75;5.50;4.00
66336;PMS1003;53139;45.576;5.304;2023-08-17T05:14:57;7.00;5.75;4.00
66336;PMS1003;53139;45.576;5.304;2023-08-17T05:17:57;7.00;4.00;3.00
66336;PMS1003;53139;45.576;5.304;2023-08-17T05:20:58;6.00;6.00;5.00
66336;PMS1003;53139;45.576;5.304;2023-08-17T05:23:58;6.00;5.25;4.00
66336;PMS1003;53139;45.576;5.304;2023-08-17T05:26:58;7.00;5.00;4.00
66336;PMS1003;53139;45.576;5.304;2023-08-17T05:29:59;6.00;6.00;4.00
66336;PMS1003;53139;45.576;5.304;2023-08-17T05:32:59;6.00;6.00;4.50
66336;PMS1003;53139;45.576;5.304;2023-08-17T05:36:00;5.25;4.50;4.00
66336;PMS1003;53139;45.576;5.304;2023-08-17T05:39:00;6.00;6.00;5.00
66336;PMS1003;53139;45.576;5.304;2023-08-17T05:42:01;6.25;5.75;5.00
66336;PMS1003;53139;45.576;5.304;2023-08-17T05:45:01;6.50;5.00;3.50
66336;PMS1003;53139;45.576;5.304;2023-08-17T05:48:02;6.25;5.00;4.00
66336;PMS1003;53139;45.576;5.304;2023-08-17T05:51:03;4.25;4.25;4.00
66336;PMS1003;53139;45.576;5.304;2023-08-17T05:54:04;5.25;4.50;4.00
66336;PMS1003;53139;45.576;5.304;2023-08-17T05:57:04;6.00;5.50;4.00
66336;PMS1003;53139;45.576;5.304;2023-08-17T06:00:05;6.50;5.50;4.00
66336;PMS1003;53139;45.576;5.304;2023-08-17T06:03:06;6.00;5.50;4.50
66336;PMS1003;53139;45.576;5.304;2023-08-17T06:06:06;5.25;5.25;3.75
66336;PMS1003;53139;45.576;5.304;2023-08-17T06:09:07;8.75;6.75;5.00
66336;PMS1003;53139;45.576;5.304;2023-08-17T06:12:08;4.25;4.25;3.75
66336;PMS1003;53139;45.576;5.304;2023-08-17T06:15:09;6.75;5.25;4.00
66336;PMS1003;53139;45.576;5.304;2023-08-17T06:18:09;5.25;4.25;4.00
66336;PMS1003;53139;45.576;5.304;2023-08-17T06:21:10;5.00;5.00;3.75
66336;PMS1003;53139;45.576;5.304;2023-08-17T06:24:10;7.50;5.00;4.00
66336;PMS1003;53139;45.576;5.304;2023-08-17T06:27:13;6.00;5.50;4.00
66336;PMS1003;53139;45.576;5.304;2023-08-17T06:30:14;8.50;5.25;4.00
66336;PMS1003;53139;45.576;5.304;2023-08-17T06:33:15;5.00;5.00;4.00
66336;PMS1003;53139;45.576;5.304;2023-08-17T06:36:16;6.25;4.75;3.50
66336;PMS1003;53139;45.576;5.304;2023-08-17T06:39:16;6.25;5.25;4.00
66336;PMS1003;53139;45.576;5.304;2023-08-17T06:42:17;5.25;3.75;3.25
66336;PMS1003;53139;45.576;5.304;2023-08-17T06:45:17;4.25;4.25;3.00
66336;PMS1003;53139;45.576;5.304;2023-08-17T06:48:18;5.25;5.00;4.25
66336;PMS1003;53139;45.576;5.304;2023-08-17T06:51:18;5.25;5.25;4.00
66336;PMS1003;53139;45.576;5.304;2023-08-17T06:54:19;7.00;6.00;6.00
66336;PMS1003;53139;45.576;5.304;2023-08-17T06:57:19;6.25;5.75;5.00
66336;PMS1003;53139;45.576;5.304;2023-08-17T07:00:21;5.00;5.00;4.00
66336;PMS1003;53139;45.576;5.304;2023-08-17T07:03:22;6.00;5.75;4.75
66336;PMS1003;53139;45.576;5.304;2023-08-17T07:06:23;6.00;4.50;3.75
66336;PMS1003;53139;45.576;5.304;2023-08-17T07:09:24;5.75;4.50;4.00
66336;PMS1003;53139;45.576;5.304;2023-08-17T07:12:24;6.25;5.75;4.00
66336;PMS1003;53139;45.576;5.304;2023-08-17T07:15:25;6.00;5.00;3.25
66336;PMS1003;53139;45.576;5.304;2023-08-17T07:18:25;5.50;5.50;4.50
66336;PMS1003;53139;45.576;5.304;2023-08-17T07:21:26;6.75;5.00;4.25
66336;PMS1003;53139;45.576;5.304;2023-08-17T07:24:26;5.25;5.25;4.25
66336;PMS1003;53139;45.576;5.304;2023-08-17T07:27:26;4.00;4.00;3.00
66336;PMS1003;53139;45.576;5.304;2023-08-17T07:30:27;4.50;4.50;3.75
66336;PMS1003;53139;45.576;5.304;2023-08-17T07:33:27;6.00;5.00;4.50
66336;PMS1003;53139;45.576;5.304;2023-08-17T07:36:28;6.50;5.00;4.00
66336;PMS1003;53139;45.576;5.304;2023-08-17T07:39:28;6.00;5.00;4.00
66336;PMS1003;53139;45.576;5.304;2023-08-17T07:42:29;5.00;5.00;5.00
66336;PMS1003;53139;45.576;5.304;2023-08-17T07:45:29;5.00;5.00;4.00
66336;PMS1003;53139;45.576;5.304;2023-08-17T07:48:29;5.00;5.00;4.75
66336;PMS1003;53139;45.576;5.304;2023-08-17T07:51:33;7.25;4.00;4.00
66336;PMS1003;53139;45.576;5.304;2023-08-17T07:54:34;4.25;4.25;4.00
66336;PMS1003;53139;45.576;5.304;2023-08-17T07:57:35;7.00;6.50;5.00
66336;PMS1003;53139;45.576;5.304;2023-08-17T08:00:36;6.75;6.75;5.00
66336;PMS1003;53139;45.576;5.304;2023-08-17T08:03:36;10.00;8.50;6.75
66336;PMS1003;53139;45.576;5.304;2023-08-17T08:06:37;7.25;7.00;5.00
66336;PMS1003;53139;45.576;5.304;2023-08-17T08:09:37;5.25;5.25;5.00
66336;PMS1003;53139;45.576;5.304;2023-08-17T08:12:38;6.50;4.50;4.00
66336;PMS1003;53139;45.576;5.304;2023-08-17T08:15:38;4.00;4.00;4.00
66336;PMS1003;53139;45.576;5.304;2023-08-17T08:18:38;4.00;4.00;3.00
66336;PMS1003;53139;45.576;5.304;2023-08-17T08:21:39;7.25;5.25;4.00
66336;PMS1003;53139;45.576;5.304;2023-08-17T08:24:39;6.00;5.00;4.00
66336;PMS1003;53139;45.576;5.304;2023-08-17T08:27:41;5.00;4.50;3.50
66336;PMS1003;53139;45.576;5.304;2023-08-17T08:30:41;6.25;6.00;4.25
66336;PMS1003;53139;45.576;5.304;2023-08-17T08:33:42;5.50;4.00;4.00
66336;PMS1003;53139;45.576;5.304;2023-08-17T08:36:43;7.00;5.75;4.75
66336;PMS1003;53139;45.576;5.304;2023-08-17T08:39:53;6.50;5.50;5.00
66336;PMS1003;53139;45.576;5.304;2023-08-17T08:42:55;4.25;4.25;4.00
66336;PMS1003;53139;45.576;5.304;2023-08-17T08:45:57;5.50;5.00;4.00
66336;PMS1003;53139;45.576;5.304;2023-08-17T08:48:59;5.25;5.25;4.25
66336;PMS1003;53139;45.576;5.304;2023-08-17T08:52:01;5.50;5.50;4.00
66336;PMS1003;53139;45.576;5.304;2023-08-17T08:55:19;6.25;5.25;4.25
66336;PMS1003;53139;45.576;5.304;2023-08-17T08:58:23;6.00;5.25;4.25
66336;PMS1003;53139;45.576;5.304;2023-08-17T09:01:25;5.00;5.00;5.00
66336;PMS1003;53139;45.576;5.304;2023-08-17T09:04:35;5.25;5.25;4.50
66336;PMS1003;53139;45.576;5.304;2023-08-17T09:07:36;4.25;4.25;3.75
66336;PMS1003;53139;45.576;5.304;2023-08-17T09:10:37;5.75;5.75;4.75
66336;PMS1003;53139;45.576;5.304;2023-08-17T09:13:38;6.00;6.00;5.00
66336;PMS1003;53139;45.576;5.304;2023-08-17T09:16:39;6.50;5.50;5.00
66336;PMS1003;53139;45.576;5.304;2023-08-17T09:19:39;3.00;3.00;2.00
66336;PMS1003;53139;45.576;5.304;2023-08-17T09:22:41;6.00;5.00;4.00
66336;PMS1003;53139;45.576;5.304;2023-08-17T09:25:43;4.75;4.75;4.75
66336;PMS1003;53139;45.576;5.304;2023-08-17T09:28:44;4.25;4.25;4.00
66336;PMS1003;53139;45.576;5.304;2023-08-17T09:32:03;5.00;5.00;5.00
66336;PMS1003;53139;45.576;5.304;2023-08-17T09:35:11;5.75;5.00;4.25
66336;PMS1003;53139;45.576;5.304;2023-08-17T09:38:16;4.25;4.25;3.75
66336;PMS1003;53139;45.576;5.304;2023-08-17T09:41:20;5.75;5.75;4.00
66336;PMS1003;53139;45.576;5.304;2023-08-17T09:44:46;5.00;4.00;3.00
66336;PMS1003;53139;45.576;5.304;2023-08-17T09:48:00;3.25;3.25;3.00
66336;PMS1003;53139;45.576;5.304;2023-08-17T09:51:16;4.25;4.25;3.75
66336;PMS1003;53139;45.576;5.304;2023-08-17T09:59:22;3.00;3.00;2.50
66336;PMS1003;53139;45.576;5.304;2023-08-17T10:02:57;4.00;4.00;3.50
66336;PMS1003;53139;45.576;5.304;2023-08-17T10:06:05;3.50;3.25;2.75
66336;PMS1003;53139;45.576;5.304;2023-08-17T10:18:31;3.25;2.50;2.00
66336;PMS1003;53139;45.576;5.304;2023-08-17T10:22:16;5.75;4.50;4.00
66336;PMS1003;53139;45.576;5.304;2023-08-17T10:25:13;3.25;3.00;2.00
66336;PMS1003;53139;45.576;5.304;2023-08-17T10:28:16;4.50;4.50;3.75
66336;PMS1003;53139;45.576;5.304;2023-08-17T10:31:18;2.25;2.25;2.00
66336;PMS1003;53139;45.576;5.304;2023-08-17T10:34:20;3.25;3.25;2.50
66336;PMS1003;53139;45.576;5.304;2023-08-17T10:37:24;3.00;3.00;2.50
66336;PMS1003;53139;45.576;5.304;2023-08-17T10:40:27;4.25;3.00;2.00
66336;PMS1003;53139;45.576;5.304;2023-08-17T10:43:32;3.25;3.25;3.00
66336;PMS1003;53139;45.576;5.304;2023-08-17T10:46:34;4.50;3.50;3.25
66336;PMS1003;53139;45.576;5.304;2023-08-17T10:49:36;4.00;4.00;4.00
66336;PMS1003;53139;45.576;5.304;2023-08-17T10:52:37;4.00;4.00;3.75
66336;PMS1003;53139;45.576;5.304;2023-08-17T10:55:39;5.50;4.75;4.00
66336;PMS1003;53139;45.576;5.304;2023-08-17T10:58:43;5.00;3.25;3.25
66336;PMS1003;53139;45.576;5.304;2023-08-17T11:01:44;7.75;2.50;2.25
66336;PMS1003;53139;45.576;5.304;2023-08-17T11:04:50;3.00;3.00;2.50
66336;PMS1003;53139;45.576;5.304;2023-08-17T11:07:51;5.50;4.00;3.00
66336;PMS1003;53139;45.576;5.304;2023-08-17T11:11:02;2.00;2.00;1.50
66336;PMS1003;53139;45.576;5.304;2023-08-17T11:14:03;4.00;4.00;3.00
66336;PMS1003;53139;45.576;5.304;2023-08-17T11:17:04;5.00;3.00;2.00
66336;PMS1003;53139;45.576;5.304;2023-08-17T11:20:05;3.50;3.00;2.50
66336;PMS1003;53139;45.576;5.304;2023-08-17T11:23:06;3.50;3.50;3.50
66336;PMS1003;53139;45.576;5.304;2023-08-17T11:26:07;2.25;1.75;1.50
66336;PMS1003;53139;45.576;5.304;2023-08-17T11:29:08;4.00;3.50;2.75
66336;PMS1003;53139;45.576;5.304;2023-08-17T11:32:09;1.00;0.00;0.00
66336;PMS1003;53139;45.576;5.304;2023-08-17T11:35:09;1.75;1.75;1.00
66336;PMS1003;53139;45.576;5.304;2023-08-17T11:38:09;3.00;3.00;2.00
66336;PMS1003;53139;45.576;5.304;2023-08-17T11:41:10;1.00;1.00;1.00
66336;PMS1003;53139;45.576;5.304;2023-08-17T11:44:13;2.00;2.00;1.75
66336;PMS1003;53139;45.576;5.304;2023-08-17T11:47:14;1.25;1.25;1.00
66336;PMS1003;53139;45.576;5.304;2023-08-17T11:50:15;2.00;2.00;1.75
66336;PMS1003;53139;45.576;5.304;2023-08-17T11:53:15;1.00;1.00;1.00
66336;PMS1003;53139;45.576;5.304;2023-08-17T11:56:16;3.00;1.50;1.00
66336;PMS1003;53139;45.576;5.304;2023-08-17T11:59:16;2.00;2.00;2.00
66336;PMS1003;53139;45.576;5.304;2023-08-17T12:02:20;1.25;1.25;1.00
66336;PMS1003;53139;45.576;5.304;2023-08-17T12:05:22;2.75;1.75;1.50
66336;PMS1003;53139;45.576;5.304;2023-08-17T12:08:27;1.50;1.00;1.00
66336;PMS1003;53139;45.576;5.304;2023-08-17T12:11:27;2.50;2.50;2.00
66336;PMS1003;53139;45.576;5.304;2023-08-17T12:14:28;3.25;2.75;1.50
66336;PMS1003;53139;45.576;5.304;2023-08-17T12:17:28;4.25;2.50;2.50
66336;PMS1003;53139;45.576;5.304;2023-08-17T12:20:29;2.50;2.00;2.00
66336;PMS1003;53139;45.576;5.304;2023-08-17T12:23:32;1.25;1.25;1.00
66336;PMS1003;53139;45.576;5.304;2023-08-17T12:26:33;1.75;1.75;1.50
66336;PMS1003;53139;45.576;5.304;2023-08-17T12:29:48;3.00;2.00;1.00
66336;PMS1003;53139;45.576;5.304;2023-08-17T12:32:49;1.25;1.25;1.00
66336;PMS1003;53139;45.576;5.304;2023-08-17T12:35:49;0.00;0.00;0.00
66336;PMS1003;53139;45.576;5.304;2023-08-17T12:38:50;3.00;1.25;1.00
66336;PMS1003;53139;45.576;5.304;2023-08-17T12:41:50;1.75;1.75;1.75
66336;PMS1003;53139;45.576;5.304;2023-08-17T12:44:51;1.75;1.00;1.00
66336;PMS1003;53139;45.576;5.304;2023-08-17T12:47:51;1.75;1.50;1.00
66336;PMS1003;53139;45.576;5.304;2023-08-17T12:50:51;0.00;0.00;0.00
66336;PMS1003;53139;45.576;5.304;2023-08-17T12:53:52;2.00;1.00;0.00
66336;PMS1003;53139;45.576;5.304;2023-08-17T12:56:52;1.25;1.00;1.00
66336;PMS1003;53139;45.576;5.304;2023-08-17T12:59:53;1.75;1.75;1.00
66336;PMS1003;53139;45.576;5.304;2023-08-17T13:02:53;0.50;0.50;0.50
66336;PMS1003;53139;45.576;5.304;2023-08-17T13:05:54;0.75;0.75;0.25
66336;PMS1003;53139;45.576;5.304;2023-08-17T13:08:54;0.25;0.25;0.25
66336;PMS1003;53139;45.576;5.304;2023-08-17T13:11:55;3.25;2.50;2.25
66336;PMS1003;53139;45.576;5.304;2023-08-17T13:14:55;1.75;1.25;1.25
66336;PMS1003;53139;45.576;5.304;2023-08-17T13:17:56;2.75;2.75;2.00
66336;PMS1003;53139;45.576;5.304;2023-08-17T13:20:56;4.00;4.00;2.75
66336;PMS1003;53139;45.576;5.304;2023-08-17T13:23:56;2.00;2.00;1.00
66336;PMS1003;53139;45.576;5.304;2023-08-17T13:26:57;2.25;2.25;2.00
66336;PMS1003;53139;45.576;5.304;2023-08-17T13:29:57;1.50;1.50;1.00
66336;PMS1003;53139;45.576;5.304;2023-08-17T13:33:01;4.00;2.00;2.00
66336;PMS1003;53139;45.576;5.304;2023-08-17T13:36:06;3.50;1.50;1.25
66336;PMS1003;53139;45.576;5.304;2023-08-17T13:39:06;2.50;2.50;2.25
66336;PMS1003;53139;45.576;5.304;2023-08-17T13:42:07;5.50;4.50;4.00
66336;PMS1003;53139;45.576;5.304;2023-08-17T13:45:17;4.25;3.75;3.00
66336;PMS1003;53139;45.576;5.304;2023-08-17T13:48:18;1.50;1.50;1.00
66336;PMS1003;53139;45.576;5.304;2023-08-17T13:51:19;4.00;2.00;2.00
66336;PMS1003;53139;45.576;5.304;2023-08-17T13:54:20;2.25;1.50;1.00
66336;PMS1003;53139;45.576;5.304;2023-08-17T13:57:20;2.00;2.00;1.25
66336;PMS1003;53139;45.576;5.304;2023-08-17T14:00:21;1.75;0.75;0.75
66336;PMS1003;53139;45.576;5.304;2023-08-17T14:03:23;0.00;0.00;0.00
66336;PMS1003;53139;45.576;5.304;2023-08-17T14:06:32;1.75;1.75;1.50
66336;PMS1003;53139;45.576;5.304;2023-08-17T14:09:48;1.75;1.75;1.50
66336;PMS1003;53139;45.576;5.304;2023-08-17T14:12:54;2.00;0.75;0.75
66336;PMS1003;53139;45.576;5.304;2023-08-17T14:15:55;3.00;2.00;2.00
66336;PMS1003;53139;45.576;5.304;2023-08-17T14:18:57;2.25;2.25;2.00
66336;PMS1003;53139;45.576;5.304;2023-08-17T14:21:58;3.50;2.75;2.75
66336;PMS1003;53139;45.576;5.304;2023-08-17T14:25:00;2.00;2.00;1.75
66336;PMS1003;53139;45.576;5.304;2023-08-17T14:28:03;4.25;2.75;2.00
66336;PMS1003;53139;45.576;5.304;2023-08-17T14:31:05;3.50;3.50;2.75
66336;PMS1003;53139;45.576;5.304;2023-08-17T14:34:05;3.25;3.25;2.75
66336;PMS1003;53139;45.576;5.304;2023-08-17T14:37:06;3.50;1.00;1.00
66336;PMS1003;53139;45.576;5.304;2023-08-17T14:40:06;3.00;3.00;2.50
66336;PMS1003;53139;45.576;5.304;2023-08-17T14:43:13;3.50;2.00;1.00
66336;PMS1003;53139;45.576;5.304;2023-08-17T14:46:14;1.75;0.75;0.75
66336;PMS1003;53139;45.576;5.304;2023-08-17T14:49:15;1.00;1.00;1.00
66336;PMS1003;53139;45.576;5.304;2023-08-17T14:52:16;1.00;1.00;0.75
66336;PMS1003;53139;45.576;5.304;2023-08-17T14:55:19;0.00;0.00;0.00
66336;PMS1003;53139;45.576;5.304;2023-08-17T14:58:20;3.00;3.00;2.00
66336;PMS1003;53139;45.576;5.304;2023-08-17T15:01:21;1.75;1.75;1.75
66336;PMS1003;53139;45.576;5.304;2023-08-17T15:04:21;2.50;2.50;2.00
66336;PMS1003;53139;45.576;5.304;2023-08-17T15:07:22;1.50;1.50;1.25
66336;PMS1003;53139;45.576;5.304;2023-08-17T15:10:22;0.00;0.00;0.00
66336;PMS1003;53139;45.576;5.304;2023-08-17T15:13:23;2.50;2.50;1.75
66336;PMS1003;53139;45.576;5.304;2023-08-17T15:16:23;2.25;1.75;1.00
66336;PMS1003;53139;45.576;5.304;2023-08-17T15:19:27;0.50;0.50;0.25
66336;PMS1003;53139;45.576;5.304;2023-08-17T15:22:28;1.00;1.00;1.00
66336;PMS1003;53139;45.576;5.304;2023-08-17T15:25:28;3.00;3.00;2.00
66336;PMS1003;53139;45.576;5.304;2023-08-17T15:28:28;1.25;1.00;1.00
66336;PMS1003;53139;45.576;5.304;2023-08-17T15:31:29;1.50;1.25;1.25
66336;PMS1003;53139;45.576;5.304;2023-08-17T15:34:29;2.75;1.00;1.00
66336;PMS1003;53139;45.576;5.304;2023-08-17T15:37:29;2.00;2.00;2.00
66336;PMS1003;53139;45.576;5.304;2023-08-17T15:40:30;2.50;2.50;1.75
66336;PMS1003;53139;45.576;5.304;2023-08-17T15:43:30;3.00;2.00;2.00
66336;PMS1003;53139;45.576;5.304;2023-08-17T15:46:31;3.00;2.25;2.00
66336;PMS1003;53139;45.576;5.304;2023-08-17T15:49:31;2.75;2.75;2.25
66336;PMS1003;53139;45.576;5.304;2023-08-17T15:52:32;2.00;2.00;1.25
66336;PMS1003;53139;45.576;5.304;2023-08-17T15:55:32;2.00;2.00;2.00
66336;PMS1003;53139;45.576;5.304;2023-08-17T15:58:32;4.50;4.50;4.00
66336;PMS1003;53139;45.576;5.304;2023-08-17T16:01:33;2.00;2.00;1.50
66336;PMS1003;53139;45.576;5.304;2023-08-17T16:04:33;3.50;3.50;2.75
66336;PMS1003;53139;45.576;5.304;2023-08-17T16:07:34;2.50;1.75;1.75
66336;PMS1003;53139;45.576;5.304;2023-08-17T16:10:34;3.75;3.75;3.25
66336;PMS1003;53139;45.576;5.304;2023-08-17T16:13:35;4.75;4.75;3.75
66336;PMS1003;53139;45.576;5.304;2023-08-17T16:16:36;3.50;3.50;3.50
66336;PMS1003;53139;45.576;5.304;2023-08-17T16:19:36;2.75;2.00;1.00
66336;PMS1003;53139;45.576;5.304;2023-08-17T16:22:37;4.00;4.00;3.00
66336;PMS1003;53139;45.576;5.304;2023-08-17T16:25:37;3.75;2.75;2.75
66336;PMS1003;53139;45.576;5.304;2023-08-17T16:28:37;4.75;4.75;3.25
66336;PMS1003;53139;45.576;5.304;2023-08-17T16:31:38;2.00;2.00;2.00
66336;PMS1003;53139;45.576;5.304;2023-08-17T16:34:38;2.75;2.75;2.50
66336;PMS1003;53139;45.576;5.304;2023-08-17T16:37:39;4.00;4.00;3.00
66336;PMS1003;53139;45.576;5.304;2023-08-17T16:40:39;2.75;2.25;2.00
66336;PMS1003;53139;45.576;5.304;2023-08-17T16:43:39;3.00;3.00;2.25
66336;PMS1003;53139;45.576;5.304;2023-08-17T16:46:40;5.50;4.75;4.00
66336;PMS1003;53139;45.576;5.304;2023-08-17T16:49:40;6.75;5.25;4.50
66336;PMS1003;53139;45.576;5.304;2023-08-17T16:52:41;4.75;4.75;3.75
66336;PMS1003;53139;45.576;5.304;2023-08-17T16:55:41;4.00;4.00;3.75
66336;PMS1003;53139;45.576;5.304;2023-08-17T16:58:44;5.75;4.75;3.75
66336;PMS1003;53139;45.576;5.304;2023-08-17T17:01:48;5.00;5.00;4.50
66336;PMS1003;53139;45.576;5.304;2023-08-17T17:04:48;4.00;4.00;2.00
66336;PMS1003;53139;45.576;5.304;2023-08-17T17:07:49;4.75;4.75;4.25
66336;PMS1003;53139;45.576;5.304;2023-08-17T17:10:49;4.00;4.00;3.75
66336;PMS1003;53139;45.576;5.304;2023-08-17T17:13:50;4.75;4.25;3.25
66336;PMS1003;53139;45.576;5.304;2023-08-17T17:16:50;5.00;4.00;4.00
66336;PMS1003;53139;45.576;5.304;2023-08-17T17:19:50;6.50;5.25;4.25
66336;PMS1003;53139;45.576;5.304;2023-08-17T17:22:51;4.75;4.75;4.00
66336;PMS1003;53139;45.576;5.304;2023-08-17T17:25:52;4.25;3.50;2.75
66336;PMS1003;53139;45.576;5.304;2023-08-17T17:28:52;5.00;5.00;4.50
66336;PMS1003;53139;45.576;5.304;2023-08-17T17:31:52;6.00;6.00;5.25
66336;PMS1003;53139;45.576;5.304;2023-08-17T17:34:53;4.00;4.00;3.50
66336;PMS1003;53139;45.576;5.304;2023-08-17T17:37:53;4.25;4.25;3.75
66336;PMS1003;53139;45.576;5.304;2023-08-17T17:40:55;4.00;4.00;3.50
66336;PMS1003;53139;45.576;5.304;2023-08-17T17:43:57;5.00;5.00;4.00
66336;PMS1003;53139;45.576;5.304;2023-08-17T17:46:57;4.25;4.25;4.00
66336;PMS1003;53139;45.576;5.304;2023-08-17T17:49:57;4.50;4.50;4.00
66336;PMS1003;53139;45.576;5.304;2023-08-17T17:52:58;5.00;5.00;4.00
66336;PMS1003;53139;45.576;5.304;2023-08-17T17:55:58;7.00;6.00;5.00
66336;PMS1003;53139;45.576;5.304;2023-08-17T17:58:58;3.50;2.00;1.25
66336;PMS1003;53139;45.576;5.304;2023-08-17T18:01:59;4.00;4.00;4.00